Amherst, Virginia
Current Conditions -  °F | °C
As of 10:54 AM on Sunday 23 Nov 2014 (Local Time) from KLYH Reporting Station
Overcast Overcast  
Wind Chill:   Ceiling: 2400
Heat Index:   Visibility: 10mi
Dew Point: -4°   Wind: 3mph
Humidity: 45%   Direction: 190°S
Pressure: 30.2"   Gusts: NA
Location:  37.59°N, 79.05°W
Report Text: KLYH 231554Z 19003KT 10SM OVC024 07/M04 A3020 RMK AO2 SLP232 T00671044 $
Loading
Personal Weather Stations






























Interactive Weather Map New forecast layout! Learn more

10-Day Weather Forecast

Advertisements
Track Severe Weather on mobile